sensor_id;sensor_type;location;lat;lon;timestamp;pressure;altitude;pressure_sealevel;temperature;humidity
55733;BME280;41637;52.364;9.910;2023-08-07T00:02:00;99910.39;;;15.80;100.00
55733;BME280;41637;52.364;9.910;2023-08-07T00:04:27;99902.86;;;15.85;100.00
55733;BME280;41637;52.364;9.910;2023-08-07T00:06:54;99906.05;;;15.88;100.00
55733;BME280;41637;52.364;9.910;2023-08-07T00:09:21;99909.98;;;15.89;100.00
55733;BME280;41637;52.364;9.910;2023-08-07T00:11:48;99907.60;;;15.95;100.00
55733;BME280;41637;52.364;9.910;2023-08-07T00:14:15;99911.02;;;15.99;100.00
55733;BME280;41637;52.364;9.910;2023-08-07T00:16:42;99916.63;;;16.02;100.00
55733;BME280;41637;52.364;9.910;2023-08-07T00:19:09;99915.57;;;16.04;100.00
55733;BME280;41637;52.364;9.910;2023-08-07T00:21:36;99915.45;;;16.03;100.00
55733;BME280;41637;52.364;9.910;2023-08-07T00:24:04;99910.02;;;16.01;100.00
55733;BME280;41637;52.364;9.910;2023-08-07T00:26:31;99906.05;;;15.99;100.00
55733;BME280;41637;52.364;9.910;2023-08-07T00:28:58;99906.48;;;15.95;100.00
55733;BME280;41637;52.364;9.910;2023-08-07T00:31:25;99907.65;;;15.92;100.00
55733;BME280;41637;52.364;9.910;2023-08-07T00:33:52;99911.48;;;15.89;100.00
55733;BME280;41637;52.364;9.910;2023-08-07T00:36:20;99919.01;;;15.86;100.00
55733;BME280;41637;52.364;9.910;2023-08-07T00:38:47;99914.12;;;15.86;100.00
55733;BME280;41637;52.364;9.910;2023-08-07T00:41:18;99920.34;;;15.83;100.00
55733;BME280;41637;52.364;9.910;2023-08-07T00:43:45;99918.60;;;15.81;100.00
55733;BME280;41637;52.364;9.910;2023-08-07T00:46:12;99917.76;;;15.79;100.00
55733;BME280;41637;52.364;9.910;2023-08-07T00:48:39;99916.61;;;15.76;100.00
55733;BME280;41637;52.364;9.910;2023-08-07T00:51:07;99921.95;;;15.74;100.00
55733;BME280;41637;52.364;9.910;2023-08-07T00:53:38;99920.48;;;15.70;100.00
55733;BME280;41637;52.364;9.910;2023-08-07T00:56:05;99919.20;;;15.68;100.00
55733;BME280;41637;52.364;9.910;2023-08-07T00:58:32;99926.59;;;15.63;100.00
55733;BME280;41637;52.364;9.910;2023-08-07T01:00:59;99927.20;;;15.61;100.00
55733;BME280;41637;52.364;9.910;2023-08-07T01:03:26;99923.48;;;15.59;100.00
55733;BME280;41637;52.364;9.910;2023-08-07T01:05:53;99925.64;;;15.59;100.00
55733;BME280;41637;52.364;9.910;2023-08-07T01:08:20;99929.30;;;15.58;100.00
55733;BME280;41637;52.364;9.910;2023-08-07T01:13:42;99928.27;;;15.57;100.00
55733;BME280;41637;52.364;9.910;2023-08-07T01:16:18;99935.29;;;15.56;100.00
55733;BME280;41637;52.364;9.910;2023-08-07T01:18:46;99928.08;;;15.54;100.00
55733;BME280;41637;52.364;9.910;2023-08-07T01:21:19;99924.09;;;15.51;100.00
55733;BME280;41637;52.364;9.910;2023-08-07T01:23:47;99923.13;;;15.45;100.00
55733;BME280;41637;52.364;9.910;2023-08-07T01:26:19;99913.02;;;15.39;100.00
55733;BME280;41637;52.364;9.910;2023-08-07T01:28:55;99916.19;;;15.32;100.00
55733;BME280;41637;52.364;9.910;2023-08-07T01:31:24;99906.54;;;15.25;100.00
55733;BME280;41637;52.364;9.910;2023-08-07T01:34:04;99904.98;;;15.22;100.00
55733;BME280;41637;52.364;9.910;2023-08-07T01:36:30;99903.63;;;15.21;100.00
55733;BME280;41637;52.364;9.910;2023-08-07T01:38:59;99906.75;;;15.21;100.00
55733;BME280;41637;52.364;9.910;2023-08-07T01:41:27;99905.23;;;15.20;100.00
55733;BME280;41637;52.364;9.910;2023-08-07T01:43:54;99908.38;;;15.19;100.00
55733;BME280;41637;52.364;9.910;2023-08-07T01:46:21;99907.11;;;15.18;100.00
55733;BME280;41637;52.364;9.910;2023-08-07T01:48:48;99910.02;;;15.17;100.00
55733;BME280;41637;52.364;9.910;2023-08-07T01:51:15;99910.94;;;15.15;100.00
55733;BME280;41637;52.364;9.910;2023-08-07T01:53:42;99914.52;;;15.14;100.00
55733;BME280;41637;52.364;9.910;2023-08-07T01:56:09;99911.63;;;15.12;100.00
55733;BME280;41637;52.364;9.910;2023-08-07T01:58:35;99907.89;;;15.09;100.00
55733;BME280;41637;52.364;9.910;2023-08-07T02:01:03;99906.25;;;15.07;100.00
55733;BME280;41637;52.364;9.910;2023-08-07T02:03:29;99903.42;;;15.03;100.00
55733;BME280;41637;52.364;9.910;2023-08-07T02:05:57;99904.81;;;15.01;100.00
55733;BME280;41637;52.364;9.910;2023-08-07T02:08:23;99903.29;;;14.98;100.00
55733;BME280;41637;52.364;9.910;2023-08-07T02:10:50;99907.74;;;14.95;100.00
55733;BME280;41637;52.364;9.910;2023-08-07T02:13:17;99903.85;;;14.95;100.00
55733;BME280;41637;52.364;9.910;2023-08-07T02:15:44;99904.85;;;14.93;100.00
55733;BME280;41637;52.364;9.910;2023-08-07T02:18:11;99903.55;;;14.92;100.00
55733;BME280;41637;52.364;9.910;2023-08-07T02:20:38;99906.06;;;14.92;100.00
55733;BME280;41637;52.364;9.910;2023-08-07T02:23:05;99907.44;;;14.94;100.00
55733;BME280;41637;52.364;9.910;2023-08-07T02:25:32;99904.97;;;14.94;100.00
55733;BME280;41637;52.364;9.910;2023-08-07T02:27:58;99906.91;;;14.94;100.00
55733;BME280;41637;52.364;9.910;2023-08-07T02:30:25;99911.33;;;14.90;100.00
55733;BME280;41637;52.364;9.910;2023-08-07T02:32:52;99911.35;;;14.89;100.00
55733;BME280;41637;52.364;9.910;2023-08-07T02:35:18;99910.08;;;14.87;100.00
55733;BME280;41637;52.364;9.910;2023-08-07T02:37:45;99907.06;;;14.83;100.00
55733;BME280;41637;52.364;9.910;2023-08-07T02:40:12;99914.48;;;14.81;100.00
55733;BME280;41637;52.364;9.910;2023-08-07T02:42:41;99911.25;;;14.80;100.00
55733;BME280;41637;52.364;9.910;2023-08-07T02:45:08;99909.74;;;14.78;100.00
55733;BME280;41637;52.364;9.910;2023-08-07T02:47:35;99916.48;;;14.75;100.00
55733;BME280;41637;52.364;9.910;2023-08-07T02:50:02;99912.73;;;14.71;100.00
55733;BME280;41637;52.364;9.910;2023-08-07T02:52:29;99910.92;;;14.71;100.00
55733;BME280;41637;52.364;9.910;2023-08-07T02:54:56;99913.66;;;14.69;100.00
55733;BME280;41637;52.364;9.910;2023-08-07T02:57:23;99913.33;;;14.69;100.00
55733;BME280;41637;52.364;9.910;2023-08-07T02:59:51;99910.34;;;14.67;100.00
55733;BME280;41637;52.364;9.910;2023-08-07T03:02:18;99922.71;;;14.67;100.00
55733;BME280;41637;52.364;9.910;2023-08-07T03:04:45;99921.35;;;14.64;100.00
55733;BME280;41637;52.364;9.910;2023-08-07T03:07:11;99919.91;;;14.64;100.00
55733;BME280;41637;52.364;9.910;2023-08-07T03:09:38;99914.52;;;14.66;100.00
55733;BME280;41637;52.364;9.910;2023-08-07T03:12:05;99920.70;;;14.67;100.00
55733;BME280;41637;52.364;9.910;2023-08-07T03:14:32;99920.70;;;14.67;100.00
55733;BME280;41637;52.364;9.910;2023-08-07T03:16:59;99922.46;;;14.71;100.00
55733;BME280;41637;52.364;9.910;2023-08-07T03:19:26;99922.27;;;14.75;100.00
55733;BME280;41637;52.364;9.910;2023-08-07T03:21:53;99920.98;;;14.79;100.00
55733;BME280;41637;52.364;9.910;2023-08-07T03:24:19;99918.91;;;14.81;100.00
55733;BME280;41637;52.364;9.910;2023-08-07T03:26:46;99924.73;;;14.83;100.00
55733;BME280;41637;52.364;9.910;2023-08-07T03:29:14;99926.67;;;14.85;100.00
55733;BME280;41637;52.364;9.910;2023-08-07T03:31:40;99931.41;;;14.84;100.00
55733;BME280;41637;52.364;9.910;2023-08-07T03:34:07;99932.45;;;14.86;100.00
55733;BME280;41637;52.364;9.910;2023-08-07T03:36:34;99926.41;;;14.87;100.00
55733;BME280;41637;52.364;9.910;2023-08-07T03:39:01;99928.14;;;14.90;100.00
55733;BME280;41637;52.364;9.910;2023-08-07T03:41:29;99933.48;;;14.90;100.00
55733;BME280;41637;52.364;9.910;2023-08-07T03:43:56;99931.23;;;14.89;100.00
55733;BME280;41637;52.364;9.910;2023-08-07T03:46:23;99935.13;;;14.91;100.00
55733;BME280;41637;52.364;9.910;2023-08-07T03:48:50;99944.63;;;14.89;100.00
55733;BME280;41637;52.364;9.910;2023-08-07T03:51:16;99944.25;;;14.91;100.00
55733;BME280;41637;52.364;9.910;2023-08-07T03:53:44;99943.95;;;14.91;100.00
55733;BME280;41637;52.364;9.910;2023-08-07T03:56:10;99945.55;;;14.93;100.00
55733;BME280;41637;52.364;9.910;2023-08-07T03:58:37;99935.98;;;14.96;100.00
55733;BME280;41637;52.364;9.910;2023-08-07T04:01:04;99934.45;;;14.97;100.00
55733;BME280;41637;52.364;9.910;2023-08-07T04:03:31;99931.11;;;14.98;100.00
55733;BME280;41637;52.364;9.910;2023-08-07T04:06:01;99936.58;;;14.97;100.00
55733;BME280;41637;52.364;9.910;2023-08-07T04:08:28;99936.49;;;14.97;100.00
55733;BME280;41637;52.364;9.910;2023-08-07T04:11:02;99937.11;;;15.00;100.00
55733;BME280;41637;52.364;9.910;2023-08-07T04:13:30;99940.60;;;15.01;100.00
55733;BME280;41637;52.364;9.910;2023-08-07T04:15:57;99941.46;;;15.03;100.00
55733;BME280;41637;52.364;9.910;2023-08-07T04:18:24;99942.81;;;15.05;100.00
55733;BME280;41637;52.364;9.910;2023-08-07T04:20:54;99938.48;;;15.07;100.00
55733;BME280;41637;52.364;9.910;2023-08-07T04:23:22;99939.98;;;15.09;100.00
55733;BME280;41637;52.364;9.910;2023-08-07T04:25:52;99947.27;;;15.07;100.00
55733;BME280;41637;52.364;9.910;2023-08-07T04:28:20;99957.48;;;15.08;100.00
55733;BME280;41637;52.364;9.910;2023-08-07T04:30:49;99946.65;;;15.11;100.00
55733;BME280;41637;52.364;9.910;2023-08-07T04:33:20;99951.48;;;15.12;100.00
55733;BME280;41637;52.364;9.910;2023-08-07T04:35:47;99956.34;;;15.15;100.00
55733;BME280;41637;52.364;9.910;2023-08-07T04:38:15;99967.30;;;15.14;100.00
55733;BME280;41637;52.364;9.910;2023-08-07T04:40:48;99959.83;;;15.14;100.00
55733;BME280;41637;52.364;9.910;2023-08-07T04:43:17;99956.42;;;15.16;100.00
55733;BME280;41637;52.364;9.910;2023-08-07T04:45:44;99958.05;;;15.17;100.00
55733;BME280;41637;52.364;9.910;2023-08-07T04:48:13;99961.56;;;15.19;100.00
55733;BME280;41637;52.364;9.910;2023-08-07T04:50:40;99960.84;;;15.21;100.00
55733;BME280;41637;52.364;9.910;2023-08-07T04:53:08;99965.38;;;15.23;100.00
55733;BME280;41637;52.364;9.910;2023-08-07T04:55:35;99966.93;;;15.25;100.00
55733;BME280;41637;52.364;9.910;2023-08-07T04:58:02;99971.61;;;15.25;100.00
55733;BME280;41637;52.364;9.910;2023-08-07T05:00:29;99974.02;;;15.26;100.00
55733;BME280;41637;52.364;9.910;2023-08-07T05:02:56;99976.56;;;15.27;100.00
55733;BME280;41637;52.364;9.910;2023-08-07T05:05:23;99977.84;;;15.27;100.00
55733;BME280;41637;52.364;9.910;2023-08-07T05:07:50;99978.04;;;15.30;100.00
55733;BME280;41637;52.364;9.910;2023-08-07T05:10:17;99981.60;;;15.31;100.00
55733;BME280;41637;52.364;9.910;2023-08-07T05:12:44;99980.36;;;15.31;100.00
55733;BME280;41637;52.364;9.910;2023-08-07T05:15:11;99982.45;;;15.33;100.00
55733;BME280;41637;52.364;9.910;2023-08-07T05:17:38;99989.81;;;15.36;100.00
55733;BME280;41637;52.364;9.910;2023-08-07T05:20:05;99977.72;;;15.40;100.00
55733;BME280;41637;52.364;9.910;2023-08-07T05:22:32;99984.60;;;15.45;100.00
55733;BME280;41637;52.364;9.910;2023-08-07T05:24:59;99977.76;;;15.50;100.00
55733;BME280;41637;52.364;9.910;2023-08-07T05:27:26;99982.05;;;15.53;100.00
55733;BME280;41637;52.364;9.910;2023-08-07T05:29:53;99987.66;;;15.51;100.00
55733;BME280;41637;52.364;9.910;2023-08-07T05:32:19;99980.27;;;15.50;100.00
55733;BME280;41637;52.364;9.910;2023-08-07T05:34:46;99982.36;;;15.47;100.00
55733;BME280;41637;52.364;9.910;2023-08-07T05:37:13;99985.75;;;15.46;100.00
55733;BME280;41637;52.364;9.910;2023-08-07T05:39:40;99986.02;;;15.46;100.00
55733;BME280;41637;52.364;9.910;2023-08-07T05:42:07;99991.05;;;15.44;100.00
55733;BME280;41637;52.364;9.910;2023-08-07T05:44:36;99992.52;;;15.45;100.00
55733;BME280;41637;52.364;9.910;2023-08-07T05:47:03;99992.30;;;15.51;100.00
55733;BME280;41637;52.364;9.910;2023-08-07T05:49:30;99992.47;;;15.55;100.00
55733;BME280;41637;52.364;9.910;2023-08-07T05:51:56;99997.82;;;15.61;100.00
55733;BME280;41637;52.364;9.910;2023-08-07T05:54:23;100002.72;;;15.60;100.00
55733;BME280;41637;52.364;9.910;2023-08-07T05:56:51;100000.52;;;15.64;100.00
55733;BME280;41637;52.364;9.910;2023-08-07T05:59:17;100004.08;;;15.67;100.00
55733;BME280;41637;52.364;9.910;2023-08-07T06:01:44;100005.92;;;15.70;100.00
55733;BME280;41637;52.364;9.910;2023-08-07T06:04:11;100007.87;;;15.72;100.00
55733;BME280;41637;52.364;9.910;2023-08-07T06:06:38;100011.81;;;15.71;100.00
55733;BME280;41637;52.364;9.910;2023-08-07T06:09:06;100012.52;;;15.70;100.00
55733;BME280;41637;52.364;9.910;2023-08-07T06:11:33;100010.88;;;15.69;100.00
55733;BME280;41637;52.364;9.910;2023-08-07T06:14:00;100009.92;;;15.69;100.00
55733;BME280;41637;52.364;9.910;2023-08-07T06:16:27;100008.08;;;15.75;100.00
55733;BME280;41637;52.364;9.910;2023-08-07T06:18:54;100013.85;;;15.77;100.00
55733;BME280;41637;52.364;9.910;2023-08-07T06:21:21;100013.88;;;15.78;100.00
55733;BME280;41637;52.364;9.910;2023-08-07T06:23:47;100013.14;;;15.78;100.00
55733;BME280;41637;52.364;9.910;2023-08-07T06:26:14;100016.55;;;15.81;100.00
55733;BME280;41637;52.364;9.910;2023-08-07T06:28:42;100033.52;;;15.86;100.00
55733;BME280;41637;52.364;9.910;2023-08-07T06:31:10;100022.96;;;15.89;100.00
55733;BME280;41637;52.364;9.910;2023-08-07T06:33:37;100022.09;;;15.91;100.00
55733;BME280;41637;52.364;9.910;2023-08-07T06:36:04;100021.65;;;15.93;100.00
55733;BME280;41637;52.364;9.910;2023-08-07T06:38:31;100025.91;;;15.92;100.00
55733;BME280;41637;52.364;9.910;2023-08-07T06:40:58;100020.85;;;15.95;100.00
55733;BME280;41637;52.364;9.910;2023-08-07T06:43:25;100017.96;;;15.99;100.00
55733;BME280;41637;52.364;9.910;2023-08-07T06:45:54;100021.34;;;16.05;100.00
55733;BME280;41637;52.364;9.910;2023-08-07T06:48:21;100022.21;;;16.13;100.00
55733;BME280;41637;52.364;9.910;2023-08-07T06:50:51;100020.25;;;16.23;100.00
55733;BME280;41637;52.364;9.910;2023-08-07T06:53:18;100023.41;;;16.35;100.00
55733;BME280;41637;52.364;9.910;2023-08-07T06:55:45;100036.86;;;16.39;98.76
55733;BME280;41637;52.364;9.910;2023-08-07T06:58:13;100030.69;;;16.46;98.41
55733;BME280;41637;52.364;9.910;2023-08-07T07:00:40;100026.55;;;16.61;98.46
55733;BME280;41637;52.364;9.910;2023-08-07T07:03:07;100031.28;;;16.73;97.47
55733;BME280;41637;52.364;9.910;2023-08-07T07:05:36;100034.25;;;16.82;96.35
55733;BME280;41637;52.364;9.910;2023-08-07T07:08:03;100030.98;;;16.79;95.35
55733;BME280;41637;52.364;9.910;2023-08-07T07:10:29;100039.02;;;16.72;95.28
55733;BME280;41637;52.364;9.910;2023-08-07T07:12:57;100036.30;;;16.75;95.88
55733;BME280;41637;52.364;9.910;2023-08-07T07:15:23;100050.03;;;16.73;95.42
55733;BME280;41637;52.364;9.910;2023-08-07T07:17:50;100042.86;;;16.82;95.37
55733;BME280;41637;52.364;9.910;2023-08-07T07:20:18;100044.81;;;16.94;94.80
55733;BME280;41637;52.364;9.910;2023-08-07T07:22:46;100047.77;;;17.06;94.12
55733;BME280;41637;52.364;9.910;2023-08-07T07:25:12;100043.38;;;17.19;93.90
55733;BME280;41637;52.364;9.910;2023-08-07T07:27:39;100042.73;;;17.31;93.20
55733;BME280;41637;52.364;9.910;2023-08-07T07:30:07;100046.51;;;17.39;92.59
55733;BME280;41637;52.364;9.910;2023-08-07T07:32:34;100048.31;;;17.50;92.43
55733;BME280;41637;52.364;9.910;2023-08-07T07:35:01;100043.77;;;17.63;91.62
55733;BME280;41637;52.364;9.910;2023-08-07T07:37:30;100048.27;;;17.75;91.33
55733;BME280;41637;52.364;9.910;2023-08-07T07:39:56;100052.98;;;17.83;90.42
55733;BME280;41637;52.364;9.910;2023-08-07T07:42:23;100050.67;;;17.81;89.20
55733;BME280;41637;52.364;9.910;2023-08-07T07:44:50;100050.40;;;17.80;89.10
55733;BME280;41637;52.364;9.910;2023-08-07T07:47:16;100056.79;;;17.84;89.04
55733;BME280;41637;52.364;9.910;2023-08-07T07:49:46;100055.36;;;17.88;88.76
55733;BME280;41637;52.364;9.910;2023-08-07T07:52:14;100051.63;;;17.99;88.26
55733;BME280;41637;52.364;9.910;2023-08-07T07:54:41;100063.21;;;18.04;86.91
55733;BME280;41637;52.364;9.910;2023-08-07T07:57:08;100056.43;;;18.05;86.58
55733;BME280;41637;52.364;9.910;2023-08-07T07:59:35;100056.70;;;18.07;86.67
55733;BME280;41637;52.364;9.910;2023-08-07T08:02:02;100059.38;;;18.13;86.24
55733;BME280;41637;52.364;9.910;2023-08-07T08:04:28;100059.77;;;18.36;86.04
55733;BME280;41637;52.364;9.910;2023-08-07T08:06:56;100064.36;;;18.52;83.90
55733;BME280;41637;52.364;9.910;2023-08-07T08:09:22;100066.00;;;18.68;83.16
55733;BME280;41637;52.364;9.910;2023-08-07T08:11:49;100064.34;;;18.82;83.38
55733;BME280;41637;52.364;9.910;2023-08-07T08:14:16;100069.83;;;18.90;83.04
55733;BME280;41637;52.364;9.910;2023-08-07T08:16:43;100077.72;;;18.86;81.84
55733;BME280;41637;52.364;9.910;2023-08-07T08:19:10;100084.94;;;18.84;81.17
55733;BME280;41637;52.364;9.910;2023-08-07T08:21:37;100080.37;;;18.80;81.46
55733;BME280;41637;52.364;9.910;2023-08-07T08:24:07;100077.17;;;18.76;81.80
55733;BME280;41637;52.364;9.910;2023-08-07T08:26:33;100077.02;;;18.71;82.09
55733;BME280;41637;52.364;9.910;2023-08-07T08:29:01;100073.64;;;18.72;82.49
55733;BME280;41637;52.364;9.910;2023-08-07T08:31:27;100085.92;;;18.63;81.78
55733;BME280;41637;52.364;9.910;2023-08-07T08:33:55;100077.58;;;18.47;81.54
55733;BME280;41637;52.364;9.910;2023-08-07T08:36:22;100075.21;;;18.37;82.74
55733;BME280;41637;52.364;9.910;2023-08-07T08:38:48;100085.45;;;18.22;82.94
55733;BME280;41637;52.364;9.910;2023-08-07T08:41:25;100078.85;;;18.12;84.05
55733;BME280;41637;52.364;9.910;2023-08-07T08:43:54;100088.23;;;17.98;84.65
55733;BME280;41637;52.364;9.910;2023-08-07T08:46:22;100088.61;;;17.92;84.94
55733;BME280;41637;52.364;9.910;2023-08-07T08:48:52;100111.88;;;17.97;84.85
55733;BME280;41637;52.364;9.910;2023-08-07T08:51:24;100103.07;;;17.99;84.86
55733;BME280;41637;52.364;9.910;2023-08-07T08:53:54;100104.40;;;18.05;85.27
55733;BME280;41637;52.364;9.910;2023-08-07T08:56:23;100107.00;;;18.30;84.83
55733;BME280;41637;52.364;9.910;2023-08-07T08:58:51;100095.34;;;18.55;83.21
55733;BME280;41637;52.364;9.910;2023-08-07T09:01:18;100099.31;;;18.70;83.31
55733;BME280;41637;52.364;9.910;2023-08-07T09:03:45;100114.31;;;18.71;83.23
55733;BME280;41637;52.364;9.910;2023-08-07T09:06:13;100138.73;;;18.37;84.73
55733;BME280;41637;52.364;9.910;2023-08-07T09:08:43;100152.95;;;17.75;89.69
55733;BME280;41637;52.364;9.910;2023-08-07T09:11:13;100142.09;;;16.70;92.16
55733;BME280;41637;52.364;9.910;2023-08-07T09:13:41;100139.34;;;15.90;97.12
55733;BME280;41637;52.364;9.910;2023-08-07T09:16:11;100141.81;;;15.53;100.00
55733;BME280;41637;52.364;9.910;2023-08-07T09:18:39;100139.69;;;15.35;100.00
55733;BME280;41637;52.364;9.910;2023-08-07T09:21:06;100147.61;;;15.22;100.00
55733;BME280;41637;52.364;9.910;2023-08-07T09:23:33;100149.11;;;15.05;100.00
55733;BME280;41637;52.364;9.910;2023-08-07T09:26:01;100142.19;;;15.02;100.00
55733;BME280;41637;52.364;9.910;2023-08-07T09:28:29;100137.98;;;15.09;100.00
55733;BME280;41637;52.364;9.910;2023-08-07T09:30:56;100142.32;;;15.21;100.00
55733;BME280;41637;52.364;9.910;2023-08-07T09:33:27;100145.95;;;15.33;100.00
55733;BME280;41637;52.364;9.910;2023-08-07T09:36:03;100145.10;;;15.49;100.00
55733;BME280;41637;52.364;9.910;2023-08-07T09:38:30;100142.52;;;15.57;100.00
55733;BME280;41637;52.364;9.910;2023-08-07T09:41:01;100143.50;;;15.65;100.00
55733;BME280;41637;52.364;9.910;2023-08-07T09:43:34;100143.99;;;15.76;100.00
55733;BME280;41637;52.364;9.910;2023-08-07T09:46:07;100141.21;;;15.92;100.00
55733;BME280;41637;52.364;9.910;2023-08-07T09:48:42;100145.80;;;16.11;100.00
55733;BME280;41637;52.364;9.910;2023-08-07T09:51:09;100138.61;;;16.40;100.00
55733;BME280;41637;52.364;9.910;2023-08-07T09:53:37;100147.48;;;16.67;100.00
55733;BME280;41637;52.364;9.910;2023-08-07T09:56:04;100142.39;;;16.87;100.00
55733;BME280;41637;52.364;9.910;2023-08-07T09:58:31;100146.55;;;17.08;98.45
55733;BME280;41637;52.364;9.910;2023-08-07T10:01:03;100143.66;;;17.29;98.30
55733;BME280;41637;52.364;9.910;2023-08-07T10:03:36;100149.58;;;17.35;96.62
55733;BME280;41637;52.364;9.910;2023-08-07T10:06:04;100153.90;;;17.23;96.53
55733;BME280;41637;52.364;9.910;2023-08-07T10:08:31;100155.69;;;17.10;97.38
55733;BME280;41637;52.364;9.910;2023-08-07T10:10:58;100162.83;;;16.93;97.92
55733;BME280;41637;52.364;9.910;2023-08-07T10:13:26;100162.77;;;16.79;98.13
55733;BME280;41637;52.364;9.910;2023-08-07T10:16:05;100163.77;;;16.61;97.68
55733;BME280;41637;52.364;9.910;2023-08-07T10:18:34;100175.50;;;16.56;97.69
55733;BME280;41637;52.364;9.910;2023-08-07T10:21:03;100172.71;;;16.45;97.68
55733;BME280;41637;52.364;9.910;2023-08-07T10:23:34;100179.64;;;16.42;97.70
55733;BME280;41637;52.364;9.910;2023-08-07T10:26:04;100166.48;;;16.49;98.15
55733;BME280;41637;52.364;9.910;2023-08-07T10:28:33;100167.56;;;16.69;97.67
55733;BME280;41637;52.364;9.910;2023-08-07T10:31:06;100174.63;;;16.95;97.02
55733;BME280;41637;52.364;9.910;2023-08-07T10:33:33;100168.05;;;17.20;97.34
55733;BME280;41637;52.364;9.910;2023-08-07T10:36:08;100171.89;;;17.32;95.60
55733;BME280;41637;52.364;9.910;2023-08-07T10:38:35;100172.16;;;17.26;94.21
55733;BME280;41637;52.364;9.910;2023-08-07T10:41:06;100190.32;;;17.10;94.09
55733;BME280;41637;52.364;9.910;2023-08-07T10:43:38;100185.05;;;17.07;95.87
55733;BME280;41637;52.364;9.910;2023-08-07T10:46:09;100180.71;;;17.09;96.66
55733;BME280;41637;52.364;9.910;2023-08-07T10:48:43;100178.78;;;17.14;97.37
55733;BME280;41637;52.364;9.910;2023-08-07T10:51:14;100193.05;;;17.19;92.78
55733;BME280;41637;52.364;9.910;2023-08-07T10:53:43;100191.23;;;17.32;90.85
55733;BME280;41637;52.364;9.910;2023-08-07T10:56:34;100184.02;;;17.40;90.53
55733;BME280;41637;52.364;9.910;2023-08-07T10:59:09;100183.58;;;17.35;89.79
55733;BME280;41637;52.364;9.910;2023-08-07T11:01:43;100176.30;;;17.31;90.06
55733;BME280;41637;52.364;9.910;2023-08-07T11:04:14;100174.98;;;17.23;90.24
55733;BME280;41637;52.364;9.910;2023-08-07T11:06:43;100184.06;;;17.15;88.97
55733;BME280;41637;52.364;9.910;2023-08-07T11:09:13;100186.18;;;16.97;88.75
55733;BME280;41637;52.364;9.910;2023-08-07T11:11:41;100181.58;;;16.86;89.97
55733;BME280;41637;52.364;9.910;2023-08-07T11:14:13;100174.60;;;16.79;91.39
55733;BME280;41637;52.364;9.910;2023-08-07T11:16:40;100173.52;;;16.74;92.14
55733;BME280;41637;52.364;9.910;2023-08-07T11:19:08;100184.27;;;16.65;92.71
55733;BME280;41637;52.364;9.910;2023-08-07T11:21:37;100181.63;;;16.54;92.49
55733;BME280;41637;52.364;9.910;2023-08-07T11:24:04;100184.05;;;16.39;90.11
55733;BME280;41637;52.364;9.910;2023-08-07T11:26:31;100180.39;;;16.32;89.99
55733;BME280;41637;52.364;9.910;2023-08-07T11:28:58;100193.20;;;16.21;89.57
55733;BME280;41637;52.364;9.910;2023-08-07T11:31:25;100197.44;;;16.10;89.84
55733;BME280;41637;52.364;9.910;2023-08-07T11:33:54;100185.02;;;16.21;91.98
55733;BME280;41637;52.364;9.910;2023-08-07T11:36:22;100185.10;;;16.52;93.32
55733;BME280;41637;52.364;9.910;2023-08-07T11:38:49;100181.48;;;16.85;90.52
55733;BME280;41637;52.364;9.910;2023-08-07T11:41:17;100182.54;;;17.06;87.07
55733;BME280;41637;52.364;9.910;2023-08-07T11:43:45;100193.00;;;17.21;85.65
55733;BME280;41637;52.364;9.910;2023-08-07T11:46:14;100203.36;;;17.26;84.08
55733;BME280;41637;52.364;9.910;2023-08-07T11:48:43;100231.64;;;17.25;81.98
55733;BME280;41637;52.364;9.910;2023-08-07T11:51:10;100227.27;;;17.23;79.55
55733;BME280;41637;52.364;9.910;2023-08-07T11:53:41;100233.23;;;17.16;75.81
55733;BME280;41637;52.364;9.910;2023-08-07T11:56:12;100230.84;;;17.15;73.70
55733;BME280;41637;52.364;9.910;2023-08-07T11:58:47;100225.23;;;17.18;73.59
55733;BME280;41637;52.364;9.910;2023-08-07T12:01:22;100227.20;;;17.27;71.82
55733;BME280;41637;52.364;9.910;2023-08-07T12:03:56;100230.05;;;17.47;70.08
55733;BME280;41637;52.364;9.910;2023-08-07T12:06:35;100225.98;;;17.76;69.26
55733;BME280;41637;52.364;9.910;2023-08-07T12:09:03;100224.00;;;18.04;67.97
55733;BME280;41637;52.364;9.910;2023-08-07T12:11:30;100223.94;;;18.30;66.07
55733;BME280;41637;52.364;9.910;2023-08-07T12:13:59;100240.08;;;18.51;64.71
55733;BME280;41637;52.364;9.910;2023-08-07T12:16:32;100231.77;;;18.83;65.07
55733;BME280;41637;52.364;9.910;2023-08-07T12:18:59;100235.21;;;19.07;63.81
55733;BME280;41637;52.364;9.910;2023-08-07T12:21:26;100261.99;;;19.36;62.99
55733;BME280;41637;52.364;9.910;2023-08-07T12:23:56;100283.42;;;19.22;62.90
55733;BME280;41637;52.364;9.910;2023-08-07T12:26:22;100278.61;;;18.85;65.22
55733;BME280;41637;52.364;9.910;2023-08-07T12:28:49;100262.54;;;18.61;66.81
55733;BME280;41637;52.364;9.910;2023-08-07T12:31:17;100260.85;;;18.60;66.37
55733;BME280;41637;52.364;9.910;2023-08-07T12:33:44;100282.75;;;18.72;64.31
55733;BME280;41637;52.364;9.910;2023-08-07T12:36:11;100257.17;;;18.86;63.37
55733;BME280;41637;52.364;9.910;2023-08-07T12:38:42;100269.20;;;19.02;61.71
55733;BME280;41637;52.364;9.910;2023-08-07T12:41:09;100274.60;;;19.28;61.19
55733;BME280;41637;52.364;9.910;2023-08-07T12:43:56;100284.33;;;19.33;60.84
55733;BME280;41637;52.364;9.910;2023-08-07T12:46:22;100284.29;;;19.06;60.00
55733;BME280;41637;52.364;9.910;2023-08-07T12:48:52;100289.32;;;18.91;60.54
55733;BME280;41637;52.364;9.910;2023-08-07T12:51:18;100285.33;;;18.85;61.01
55733;BME280;41637;52.364;9.910;2023-08-07T12:53:47;100291.14;;;18.85;59.78
55733;BME280;41637;52.364;9.910;2023-08-07T12:56:14;100287.66;;;18.92;58.98